sensor_id;sensor_type;location;lat;lon;timestamp;pressure;altitude;pressure_sealevel;temperature;humidity
60832;BME280;46665;51.558;-0.448;2023-05-03T00:00:13;102322.97;;;6.82;100.00
60832;BME280;46665;51.558;-0.448;2023-05-03T00:02:40;102324.59;;;6.83;100.00
60832;BME280;46665;51.558;-0.448;2023-05-03T00:05:09;102321.31;;;6.81;100.00
60832;BME280;46665;51.558;-0.448;2023-05-03T00:07:41;102318.19;;;6.78;100.00
60832;BME280;46665;51.558;-0.448;2023-05-03T00:10:07;102326.31;;;6.78;100.00
60832;BME280;46665;51.558;-0.448;2023-05-03T00:12:34;102315.09;;;6.74;100.00
60832;BME280;46665;51.558;-0.448;2023-05-03T00:15:00;102311.41;;;6.62;100.00
60832;BME280;46665;51.558;-0.448;2023-05-03T00:17:25;102309.97;;;6.53;100.00
60832;BME280;46665;51.558;-0.448;2023-05-03T00:19:51;102320.19;;;6.44;100.00
60832;BME280;46665;51.558;-0.448;2023-05-03T00:22:19;102317.06;;;6.40;100.00
60832;BME280;46665;51.558;-0.448;2023-05-03T00:24:45;102312.50;;;6.41;100.00
60832;BME280;46665;51.558;-0.448;2023-05-03T00:27:10;102313.13;;;6.36;100.00
60832;BME280;46665;51.558;-0.448;2023-05-03T00:29:36;102310.00;;;6.33;100.00
60832;BME280;46665;51.558;-0.448;2023-05-03T00:32:01;102311.06;;;6.32;100.00
60832;BME280;46665;51.558;-0.448;2023-05-03T00:34:26;102311.94;;;6.25;100.00
60832;BME280;46665;51.558;-0.448;2023-05-03T00:36:52;102311.06;;;6.25;100.00
60832;BME280;46665;51.558;-0.448;2023-05-03T00:39:17;102310.69;;;6.21;100.00
60832;BME280;46665;51.558;-0.448;2023-05-03T00:41:43;102305.91;;;6.23;100.00
60832;BME280;46665;51.558;-0.448;2023-05-03T00:44:08;102305.28;;;6.21;100.00
60832;BME280;46665;51.558;-0.448;2023-05-03T00:46:34;102306.72;;;6.17;100.00
60832;BME280;46665;51.558;-0.448;2023-05-03T00:48:59;102307.16;;;6.14;100.00
60832;BME280;46665;51.558;-0.448;2023-05-03T00:51:26;102305.31;;;6.08;100.00
60832;BME280;46665;51.558;-0.448;2023-05-03T00:53:52;102304.25;;;6.09;100.00
60832;BME280;46665;51.558;-0.448;2023-05-03T00:56:18;102310.72;;;6.08;100.00
60832;BME280;46665;51.558;-0.448;2023-05-03T00:58:50;102311.09;;;6.05;100.00
60832;BME280;46665;51.558;-0.448;2023-05-03T01:01:16;102313.84;;;5.98;100.00
60832;BME280;46665;51.558;-0.448;2023-05-03T01:03:42;102301.09;;;5.92;100.00
60832;BME280;46665;51.558;-0.448;2023-05-03T01:06:26;102310.47;;;5.90;100.00
60832;BME280;46665;51.558;-0.448;2023-05-03T01:08:58;102303.84;;;5.85;100.00
60832;BME280;46665;51.558;-0.448;2023-05-03T01:11:33;102297.19;;;5.88;100.00
60832;BME280;46665;51.558;-0.448;2023-05-03T01:14:11;102296.75;;;5.84;100.00
60832;BME280;46665;51.558;-0.448;2023-05-03T01:16:51;102294.69;;;5.86;100.00
60832;BME280;46665;51.558;-0.448;2023-05-03T01:19:28;102285.75;;;5.86;100.00
60832;BME280;46665;51.558;-0.448;2023-05-03T01:22:02;102282.84;;;5.81;100.00
60832;BME280;46665;51.558;-0.448;2023-05-03T01:24:30;102281.19;;;5.80;100.00
60832;BME280;46665;51.558;-0.448;2023-05-03T01:26:56;102279.53;;;5.85;100.00
60832;BME280;46665;51.558;-0.448;2023-05-03T01:29:22;102279.09;;;5.89;100.00
60832;BME280;46665;51.558;-0.448;2023-05-03T01:31:57;102273.88;;;5.87;100.00
60832;BME280;46665;51.558;-0.448;2023-05-03T01:34:55;102276.19;;;5.83;100.00
60832;BME280;46665;51.558;-0.448;2023-05-03T01:37:26;102273.09;;;5.80;100.00
60832;BME280;46665;51.558;-0.448;2023-05-03T01:40:02;102276.81;;;5.79;100.00
60832;BME280;46665;51.558;-0.448;2023-05-03T01:42:34;102279.94;;;5.76;100.00
60832;BME280;46665;51.558;-0.448;2023-05-03T01:45:02;102280.75;;;5.70;100.00
60832;BME280;46665;51.558;-0.448;2023-05-03T01:47:28;102273.72;;;5.69;100.00
60832;BME280;46665;51.558;-0.448;2023-05-03T01:49:53;102274.53;;;5.69;100.00
60832;BME280;46665;51.558;-0.448;2023-05-03T01:52:19;102277.03;;;5.64;100.00
60832;BME280;46665;51.558;-0.448;2023-05-03T01:54:44;102281.59;;;5.57;100.00
60832;BME280;46665;51.558;-0.448;2023-05-03T01:57:10;102285.34;;;5.56;100.00
60832;BME280;46665;51.558;-0.448;2023-05-03T01:59:35;102284.31;;;5.50;100.00
60832;BME280;46665;51.558;-0.448;2023-05-03T02:02:01;102285.75;;;5.46;100.00
60832;BME280;46665;51.558;-0.448;2023-05-03T02:04:26;102280.38;;;5.39;100.00
60832;BME280;46665;51.558;-0.448;2023-05-03T02:06:51;102284.50;;;5.35;100.00
60832;BME280;46665;51.558;-0.448;2023-05-03T02:09:17;102284.50;;;5.35;100.00
60832;BME280;46665;51.558;-0.448;2023-05-03T02:11:42;102282.00;;;5.27;100.00
60832;BME280;46665;51.558;-0.448;2023-05-03T02:14:08;102285.53;;;5.28;100.00
60832;BME280;46665;51.558;-0.448;2023-05-03T02:16:33;102282.00;;;5.27;100.00
60832;BME280;46665;51.558;-0.448;2023-05-03T02:18:59;102289.47;;;5.25;100.00
60832;BME280;46665;51.558;-0.448;2023-05-03T02:21:25;102294.66;;;5.20;100.00
60832;BME280;46665;51.558;-0.448;2023-05-03T02:23:51;102289.03;;;5.15;100.00
60832;BME280;46665;51.558;-0.448;2023-05-03T02:26:16;102281.78;;;5.15;100.00
60832;BME280;46665;51.558;-0.448;2023-05-03T02:28:42;102276.97;;;5.11;100.00
60832;BME280;46665;51.558;-0.448;2023-05-03T02:31:07;102284.47;;;5.15;100.00
60832;BME280;46665;51.558;-0.448;2023-05-03T02:33:32;102281.78;;;5.15;100.00
60832;BME280;46665;51.558;-0.448;2023-05-03T02:35:58;102279.06;;;5.15;100.00
60832;BME280;46665;51.558;-0.448;2023-05-03T02:38:23;102283.84;;;5.13;100.00
60832;BME280;46665;51.558;-0.448;2023-05-03T02:40:48;102286.53;;;5.13;100.00
60832;BME280;46665;51.558;-0.448;2023-05-03T02:43:14;102277.81;;;5.11;100.00
60832;BME280;46665;51.558;-0.448;2023-05-03T02:45:42;102274.69;;;5.08;100.00
60832;BME280;46665;51.558;-0.448;2023-05-03T02:48:07;102275.75;;;5.07;100.00
60832;BME280;46665;51.558;-0.448;2023-05-03T02:50:33;102272.19;;;5.06;100.00
60832;BME280;46665;51.558;-0.448;2023-05-03T02:52:59;102274.06;;;5.06;100.00
60832;BME280;46665;51.558;-0.448;2023-05-03T02:55:24;102270.13;;;5.02;100.00
60832;BME280;46665;51.558;-0.448;2023-05-03T02:57:50;102269.72;;;5.05;100.00
60832;BME280;46665;51.558;-0.448;2023-05-03T03:00:15;102272.19;;;5.06;100.00
60832;BME280;46665;51.558;-0.448;2023-05-03T03:02:40;102273.25;;;5.05;100.00
60832;BME280;46665;51.558;-0.448;2023-05-03T03:05:06;102267.22;;;5.10;100.00
60832;BME280;46665;51.558;-0.448;2023-05-03T03:07:33;102264.13;;;5.13;100.00
60832;BME280;46665;51.558;-0.448;2023-05-03T03:09:58;102267.66;;;5.13;100.00
60832;BME280;46665;51.558;-0.448;2023-05-03T03:12:25;102267.22;;;5.10;100.00
60832;BME280;46665;51.558;-0.448;2023-05-03T03:14:51;102264.72;;;5.08;100.00
60832;BME280;46665;51.558;-0.448;2023-05-03T03:17:17;102262.84;;;5.09;100.00
60832;BME280;46665;51.558;-0.448;2023-05-03T03:19:42;102266.19;;;5.11;100.00
60832;BME280;46665;51.558;-0.448;2023-05-03T03:22:08;102248.56;;;5.15;100.00
60832;BME280;46665;51.558;-0.448;2023-05-03T03:24:34;102252.31;;;5.20;100.00
60832;BME280;46665;51.558;-0.448;2023-05-03T03:26:59;102243.16;;;5.21;100.00
60832;BME280;46665;51.558;-0.448;2023-05-03T03:29:25;102247.34;;;5.24;100.00
60832;BME280;46665;51.558;-0.448;2023-05-03T03:31:50;102247.53;;;5.22;100.00
60832;BME280;46665;51.558;-0.448;2023-05-03T03:34:16;102236.75;;;5.22;100.00
60832;BME280;46665;51.558;-0.448;2023-05-03T03:36:41;102237.75;;;5.21;100.00
60832;BME280;46665;51.558;-0.448;2023-05-03T03:39:06;102232.34;;;5.21;100.00
60832;BME280;46665;51.558;-0.448;2023-05-03T03:41:32;102224.25;;;5.21;100.00
60832;BME280;46665;51.558;-0.448;2023-05-03T03:43:57;102217.66;;;5.24;100.00
60832;BME280;46665;51.558;-0.448;2023-05-03T03:46:23;102212.25;;;5.24;100.00
60832;BME280;46665;51.558;-0.448;2023-05-03T03:48:49;102216.41;;;5.27;100.00
60832;BME280;46665;51.558;-0.448;2023-05-03T03:51:15;102215.53;;;5.26;100.00
60832;BME280;46665;51.558;-0.448;2023-05-03T03:53:40;102209.56;;;5.24;100.00
60832;BME280;46665;51.558;-0.448;2023-05-03T03:56:06;102211.00;;;5.20;100.00
60832;BME280;46665;51.558;-0.448;2023-05-03T03:58:32;102212.63;;;5.21;100.00
60832;BME280;46665;51.558;-0.448;2023-05-03T04:00:57;102207.25;;;5.21;100.00
60832;BME280;46665;51.558;-0.448;2023-05-03T04:03:25;102202.69;;;5.15;100.00
60832;BME280;46665;51.558;-0.448;2023-05-03T04:05:50;102207.88;;;5.10;100.00
60832;BME280;46665;51.558;-0.448;2023-05-03T04:08:16;102206.41;;;5.07;100.00
60832;BME280;46665;51.558;-0.448;2023-05-03T04:10:41;102196.88;;;5.05;100.00
60832;BME280;46665;51.558;-0.448;2023-05-03T04:13:07;102203.09;;;5.05;100.00
60832;BME280;46665;51.558;-0.448;2023-05-03T04:15:33;102197.88;;;5.04;100.00
60832;BME280;46665;51.558;-0.448;2023-05-03T04:17:58;102202.91;;;5.07;100.00
60832;BME280;46665;51.558;-0.448;2023-05-03T04:20:23;102197.69;;;5.05;100.00
60832;BME280;46665;51.558;-0.448;2023-05-03T04:22:49;102197.66;;;4.98;100.00
60832;BME280;46665;51.558;-0.448;2023-05-03T04:25:14;102200.81;;;5.02;100.00
60832;BME280;46665;51.558;-0.448;2023-05-03T04:27:41;102205.97;;;5.04;100.00
60832;BME280;46665;51.558;-0.448;2023-05-03T04:30:07;102199.34;;;4.99;100.00
60832;BME280;46665;51.558;-0.448;2023-05-03T04:32:32;102193.53;;;4.96;100.00
60832;BME280;46665;51.558;-0.448;2023-05-03T04:35:03;102207.44;;;4.99;100.00
60832;BME280;46665;51.558;-0.448;2023-05-03T04:37:29;102195.41;;;4.95;100.00
60832;BME280;46665;51.558;-0.448;2023-05-03T04:39:55;102207.88;;;4.96;100.00
60832;BME280;46665;51.558;-0.448;2023-05-03T04:42:20;102206.00;;;4.97;100.00
60832;BME280;46665;51.558;-0.448;2023-05-03T04:44:45;102212.84;;;4.99;100.00
60832;BME280;46665;51.558;-0.448;2023-05-03T04:47:11;102206.81;;;4.97;100.00
60832;BME280;46665;51.558;-0.448;2023-05-03T04:49:36;102206.00;;;4.97;100.00
60832;BME280;46665;51.558;-0.448;2023-05-03T04:52:03;102211.16;;;4.98;100.00
60832;BME280;46665;51.558;-0.448;2023-05-03T04:54:28;102206.41;;;5.00;100.00
60832;BME280;46665;51.558;-0.448;2023-05-03T04:56:54;102210.97;;;5.00;100.00
60832;BME280;46665;51.558;-0.448;2023-05-03T04:59:19;102214.06;;;5.04;100.00
60832;BME280;46665;51.558;-0.448;2023-05-03T05:01:45;102211.59;;;5.02;100.00
60832;BME280;46665;51.558;-0.448;2023-05-03T05:04:11;102214.50;;;5.07;100.00
60832;BME280;46665;51.558;-0.448;2023-05-03T05:06:36;102207.44;;;5.13;100.00
60832;BME280;46665;51.558;-0.448;2023-05-03T05:09:02;102216.38;;;5.20;100.00
60832;BME280;46665;51.558;-0.448;2023-05-03T05:11:28;102211.41;;;5.30;100.00
60832;BME280;46665;51.558;-0.448;2023-05-03T05:13:54;102220.97;;;5.39;100.00
60832;BME280;46665;51.558;-0.448;2023-05-03T05:16:19;102213.66;;;5.47;100.00
60832;BME280;46665;51.558;-0.448;2023-05-03T05:18:46;102213.88;;;5.58;100.00
60832;BME280;46665;51.558;-0.448;2023-05-03T05:21:11;102219.28;;;5.65;100.00
60832;BME280;46665;51.558;-0.448;2023-05-03T05:23:38;102223.22;;;5.76;100.00
60832;BME280;46665;51.558;-0.448;2023-05-03T05:26:04;102225.50;;;5.85;100.00
60832;BME280;46665;51.558;-0.448;2023-05-03T05:28:29;102225.06;;;5.89;100.00
60832;BME280;46665;51.558;-0.448;2023-05-03T05:30:54;102233.41;;;5.94;100.00
60832;BME280;46665;51.558;-0.448;2023-05-03T05:33:20;102236.28;;;5.99;100.00
60832;BME280;46665;51.558;-0.448;2023-05-03T05:35:47;102230.06;;;5.98;100.00
60832;BME280;46665;51.558;-0.448;2023-05-03T05:38:16;102229.44;;;6.03;100.00
60832;BME280;46665;51.558;-0.448;2023-05-03T05:40:42;102236.69;;;6.09;100.00
60832;BME280;46665;51.558;-0.448;2023-05-03T05:43:07;102239.56;;;6.14;100.00
60832;BME280;46665;51.558;-0.448;2023-05-03T05:45:33;102249.13;;;6.23;100.00
60832;BME280;46665;51.558;-0.448;2023-05-03T05:47:59;102250.97;;;6.29;100.00
60832;BME280;46665;51.558;-0.448;2023-05-03T05:50:24;102250.31;;;6.34;100.00
60832;BME280;46665;51.558;-0.448;2023-05-03T05:52:50;102250.72;;;6.38;100.00
60832;BME280;46665;51.558;-0.448;2023-05-03T05:55:17;102253.03;;;6.41;100.00
60832;BME280;46665;51.558;-0.448;2023-05-03T05:57:42;102244.25;;;6.45;100.00
60832;BME280;46665;51.558;-0.448;2023-05-03T06:00:08;102253.97;;;6.53;100.00
60832;BME280;46665;51.558;-0.448;2023-05-03T06:02:41;102244.41;;;6.57;100.00
60832;BME280;46665;51.558;-0.448;2023-05-03T06:05:07;102245.66;;;6.61;100.00
60832;BME280;46665;51.558;-0.448;2023-05-03T06:07:32;102236.47;;;6.62;100.00
60832;BME280;46665;51.558;-0.448;2023-05-03T06:09:58;102241.03;;;6.68;100.00
60832;BME280;46665;51.558;-0.448;2023-05-03T06:12:23;102236.00;;;6.72;100.00
60832;BME280;46665;51.558;-0.448;2023-05-03T06:14:49;102253.25;;;6.78;100.00
60832;BME280;46665;51.558;-0.448;2023-05-03T06:17:14;102254.69;;;6.80;100.00
60832;BME280;46665;51.558;-0.448;2023-05-03T06:19:40;102254.22;;;6.90;100.00
60832;BME280;46665;51.558;-0.448;2023-05-03T06:22:06;102252.31;;;6.97;100.00
60832;BME280;46665;51.558;-0.448;2023-05-03T06:24:31;102245.00;;;7.04;100.00
60832;BME280;46665;51.558;-0.448;2023-05-03T06:26:57;102253.50;;;7.08;100.00
60832;BME280;46665;51.558;-0.448;2023-05-03T06:29:24;102250.75;;;7.14;100.00
60832;BME280;46665;51.558;-0.448;2023-05-03T06:31:50;102239.03;;;7.21;100.00
60832;BME280;46665;51.558;-0.448;2023-05-03T06:34:18;102253.75;;;7.31;100.00
60832;BME280;46665;51.558;-0.448;2023-05-03T06:36:44;102249.09;;;7.38;100.00
60832;BME280;46665;51.558;-0.448;2023-05-03T06:39:09;102253.41;;;7.46;100.00
60832;BME280;46665;51.558;-0.448;2023-05-03T06:41:35;102233.78;;;7.51;100.00
60832;BME280;46665;51.558;-0.448;2023-05-03T06:44:01;102234.78;;;7.56;100.00
60832;BME280;46665;51.558;-0.448;2023-05-03T06:46:28;102234.94;;;7.62;100.00
60832;BME280;46665;51.558;-0.448;2023-05-03T06:48:54;102240.09;;;7.70;100.00
60832;BME280;46665;51.558;-0.448;2023-05-03T06:51:23;102233.16;;;7.74;100.00
60832;BME280;46665;51.558;-0.448;2023-05-03T06:53:53;102240.78;;;7.84;100.00
60832;BME280;46665;51.558;-0.448;2023-05-03T06:56:20;102235.16;;;7.85;100.00
60832;BME280;46665;51.558;-0.448;2023-05-03T06:58:46;102232.16;;;7.93;100.00
60832;BME280;46665;51.558;-0.448;2023-05-03T07:01:11;102238.75;;;7.97;100.00
60832;BME280;46665;51.558;-0.448;2023-05-03T07:03:37;102229.75;;;8.03;100.00
60832;BME280;46665;51.558;-0.448;2023-05-03T07:06:02;102231.53;;;8.10;100.00
60832;BME280;46665;51.558;-0.448;2023-05-03T07:08:28;102229.38;;;8.18;100.00
60832;BME280;46665;51.558;-0.448;2023-05-03T07:10:53;102230.13;;;8.25;100.00
60832;BME280;46665;51.558;-0.448;2023-05-03T07:13:19;102238.97;;;8.39;100.00
60832;BME280;46665;51.558;-0.448;2023-05-03T07:15:45;102238.28;;;8.44;100.00
60832;BME280;46665;51.558;-0.448;2023-05-03T07:18:10;102227.78;;;8.48;100.00
60832;BME280;46665;51.558;-0.448;2023-05-03T07:20:36;102229.22;;;8.50;100.00
60832;BME280;46665;51.558;-0.448;2023-05-03T07:23:01;102232.31;;;8.54;100.00
60832;BME280;46665;51.558;-0.448;2023-05-03T07:25:26;102223.72;;;8.57;100.00
60832;BME280;46665;51.558;-0.448;2023-05-03T07:27:52;102227.41;;;8.62;100.00
60832;BME280;46665;51.558;-0.448;2023-05-03T07:30:17;102228.97;;;8.70;100.00
60832;BME280;46665;51.558;-0.448;2023-05-03T07:32:43;102230.78;;;8.76;100.00
60832;BME280;46665;51.558;-0.448;2023-05-03T07:35:08;102220.63;;;8.83;100.00
60832;BME280;46665;51.558;-0.448;2023-05-03T07:37:34;102219.94;;;8.88;100.00
60832;BME280;46665;51.558;-0.448;2023-05-03T07:39:59;102222.56;;;8.95;100.00
60832;BME280;46665;51.558;-0.448;2023-05-03T07:42:25;102229.75;;;9.01;100.00
60832;BME280;46665;51.558;-0.448;2023-05-03T07:44:51;102232.63;;;9.06;100.00
60832;BME280;46665;51.558;-0.448;2023-05-03T07:47:16;102227.31;;;9.11;100.00
60832;BME280;46665;51.558;-0.448;2023-05-03T07:49:42;102227.81;;;9.20;100.00
60832;BME280;46665;51.558;-0.448;2023-05-03T07:52:08;102223.94;;;9.27;100.00
60832;BME280;46665;51.558;-0.448;2023-05-03T07:54:33;102228.19;;;9.35;100.00
60832;BME280;46665;51.558;-0.448;2023-05-03T07:56:59;102227.25;;;9.41;99.80
60832;BME280;46665;51.558;-0.448;2023-05-03T07:59:24;102230.09;;;9.46;98.34
60832;BME280;46665;51.558;-0.448;2023-05-03T08:01:50;102233.75;;;9.52;98.25
60832;BME280;46665;51.558;-0.448;2023-05-03T08:04:15;102230.34;;;9.57;97.87
60832;BME280;46665;51.558;-0.448;2023-05-03T08:06:41;102223.16;;;9.62;97.53
60832;BME280;46665;51.558;-0.448;2023-05-03T08:09:07;102225.88;;;9.62;97.39
60832;BME280;46665;51.558;-0.448;2023-05-03T08:11:33;102221.72;;;9.71;96.89
60832;BME280;46665;51.558;-0.448;2023-05-03T08:13:58;102211.56;;;9.79;95.80
60832;BME280;46665;51.558;-0.448;2023-05-03T08:16:24;102210.38;;;9.86;94.45
60832;BME280;46665;51.558;-0.448;2023-05-03T08:18:50;102206.94;;;9.91;94.06
60832;BME280;46665;51.558;-0.448;2023-05-03T08:21:15;102213.66;;;10.00;94.56
60832;BME280;46665;51.558;-0.448;2023-05-03T08:23:41;102215.19;;;10.08;93.97
60832;BME280;46665;51.558;-0.448;2023-05-03T08:26:07;102215.88;;;10.15;92.97
60832;BME280;46665;51.558;-0.448;2023-05-03T08:28:33;102210.78;;;10.18;92.56
60832;BME280;46665;51.558;-0.448;2023-05-03T08:30:59;102198.72;;;10.26;92.60
60832;BME280;46665;51.558;-0.448;2023-05-03T08:33:27;102219.91;;;10.36;91.07
60832;BME280;46665;51.558;-0.448;2023-05-03T08:35:52;102208.53;;;10.39;90.03
60832;BME280;46665;51.558;-0.448;2023-05-03T08:38:18;102206.94;;;10.43;90.29
60832;BME280;46665;51.558;-0.448;2023-05-03T08:40:47;102214.16;;;10.49;90.37
60832;BME280;46665;51.558;-0.448;2023-05-03T08:43:16;102206.09;;;10.54;90.12
60832;BME280;46665;51.558;-0.448;2023-05-03T08:45:44;102211.41;;;10.61;90.20
60832;BME280;46665;51.558;-0.448;2023-05-03T08:48:09;102215.88;;;10.67;88.59
60832;BME280;46665;51.558;-0.448;2023-05-03T08:50:35;102215.63;;;10.69;86.51
60832;BME280;46665;51.558;-0.448;2023-05-03T08:53:09;102209.69;;;10.72;87.37
60832;BME280;46665;51.558;-0.448;2023-05-03T08:55:36;102208.72;;;10.78;86.45
60832;BME280;46665;51.558;-0.448;2023-05-03T08:58:05;102200.91;;;10.81;86.91
60832;BME280;46665;51.558;-0.448;2023-05-03T09:00:35;102193.38;;;10.89;87.26
60832;BME280;46665;51.558;-0.448;2023-05-03T09:03:00;102198.09;;;10.93;84.70
60832;BME280;46665;51.558;-0.448;2023-05-03T09:05:29;102198.19;;;10.98;85.80
60832;BME280;46665;51.558;-0.448;2023-05-03T09:08:05;102203.25;;;11.06;87.34
60832;BME280;46665;51.558;-0.448;2023-05-03T09:10:32;102194.31;;;11.11;86.41
60832;BME280;46665;51.558;-0.448;2023-05-03T09:13:01;102198.69;;;11.12;85.52
60832;BME280;46665;51.558;-0.448;2023-05-03T09:15:29;102198.53;;;11.19;86.32
60832;BME280;46665;51.558;-0.448;2023-05-03T09:20:38;102195.88;;;11.24;84.51
60832;BME280;46665;51.558;-0.448;2023-05-03T09:23:05;102189.38;;;11.25;85.46
60832;BME280;46665;51.558;-0.448;2023-05-03T09:25:48;102199.34;;;11.36;86.71
60832;BME280;46665;51.558;-0.448;2023-05-03T09:28:16;102196.22;;;11.44;85.15
60832;BME280;46665;51.558;-0.448;2023-05-03T09:30:43;102189.63;;;11.40;83.67
60832;BME280;46665;51.558;-0.448;2023-05-03T09:33:08;102192.66;;;11.44;83.51
60832;BME280;46665;51.558;-0.448;2023-05-03T09:35:36;102189.69;;;11.45;83.83
60832;BME280;46665;51.558;-0.448;2023-05-03T09:38:01;102199.34;;;11.53;82.39
60832;BME280;46665;51.558;-0.448;2023-05-03T09:40:27;102187.19;;;11.61;82.57
60832;BME280;46665;51.558;-0.448;2023-05-03T09:43:07;102197.66;;;11.69;81.60
60832;BME280;46665;51.558;-0.448;2023-05-03T09:45:37;102199.06;;;11.71;81.80
60832;BME280;46665;51.558;-0.448;2023-05-03T09:48:04;102196.47;;;11.82;81.64
60832;BME280;46665;51.558;-0.448;2023-05-03T09:50:34;102188.41;;;11.87;80.54
60832;BME280;46665;51.558;-0.448;2023-05-03T09:53:04;102193.94;;;11.92;79.03
60832;BME280;46665;51.558;-0.448;2023-05-03T09:55:34;102187.22;;;12.00;78.55
60832;BME280;46665;51.558;-0.448;2023-05-03T09:58:01;102181.34;;;12.08;77.91
60832;BME280;46665;51.558;-0.448;2023-05-03T10:00:38;102179.84;;;12.22;79.17
60832;BME280;46665;51.558;-0.448;2023-05-03T10:03:10;102187.41;;;12.37;78.13
60832;BME280;46665;51.558;-0.448;2023-05-03T10:05:45;102189.72;;;12.50;75.60
60832;BME280;46665;51.558;-0.448;2023-05-03T10:08:18;102185.75;;;12.63;75.33
60832;BME280;46665;51.558;-0.448;2023-05-03T10:10:48;102188.09;;;12.76;73.80
60832;BME280;46665;51.558;-0.448;2023-05-03T10:13:16;102181.75;;;12.71;72.66
60832;BME280;46665;51.558;-0.448;2023-05-03T10:15:42;102183.19;;;12.78;72.55
60832;BME280;46665;51.558;-0.448;2023-05-03T10:18:12;102189.53;;;12.84;70.38
60832;BME280;46665;51.558;-0.448;2023-05-03T10:20:52;102175.59;;;12.86;70.58
60832;BME280;46665;51.558;-0.448;2023-05-03T10:23:21;102165.25;;;12.88;70.55
60832;BME280;46665;51.558;-0.448;2023-05-03T10:26:19;102177.00;;;12.88;69.29
60832;BME280;46665;51.558;-0.448;2023-05-03T10:28:47;102175.66;;;12.91;70.29
60832;BME280;46665;51.558;-0.448;2023-05-03T10:31:42;102160.97;;;12.97;70.32
60832;BME280;46665;51.558;-0.448;2023-05-03T10:34:19;102162.59;;;12.98;69.49
60832;BME280;46665;51.558;-0.448;2023-05-03T10:36:46;102158.56;;;13.06;69.79
60832;BME280;46665;51.558;-0.448;2023-05-03T10:39:15;102153.06;;;13.00;67.31
60832;BME280;46665;51.558;-0.448;2023-05-03T10:41:40;102153.91;;;13.06;67.76
60832;BME280;46665;51.558;-0.448;2023-05-03T10:44:28;102150.72;;;13.14;68.14
60832;BME280;46665;51.558;-0.448;2023-05-03T10:46:53;102149.09;;;13.18;67.92
60832;BME280;46665;51.558;-0.448;2023-05-03T10:49:21;102156.78;;;13.21;66.54
60832;BME280;46665;51.558;-0.448;2023-05-03T10:51:46;102148.88;;;13.25;66.74
60832;BME280;46665;51.558;-0.448;2023-05-03T10:54:12;102145.13;;;13.31;67.83
60832;BME280;46665;51.558;-0.448;2023-05-03T10:56:51;102136.69;;;13.38;67.22
60832;BME280;46665;51.558;-0.448;2023-05-03T10:59:17;102127.69;;;13.37;66.86
60832;BME280;46665;51.558;-0.448;2023-05-03T11:01:48;102130.69;;;13.41;65.67
60832;BME280;46665;51.558;-0.448;2023-05-03T11:04:25;102133.28;;;13.58;67.99
60832;BME280;46665;51.558;-0.448;2023-05-03T11:06:54;102123.47;;;13.67;67.18
60832;BME280;46665;51.558;-0.448;2023-05-03T11:09:29;102135.28;;;13.73;66.30
60832;BME280;46665;51.558;-0.448;2023-05-03T11:11:55;102126.56;;;13.86;66.69
60832;BME280;46665;51.558;-0.448;2023-05-03T11:14:21;102122.47;;;13.88;66.16
60832;BME280;46665;51.558;-0.448;2023-05-03T11:16:46;102118.94;;;13.93;65.73
60832;BME280;46665;51.558;-0.448;2023-05-03T11:19:14;102121.44;;;14.05;64.90
60832;BME280;46665;51.558;-0.448;2023-05-03T11:21:41;102109.13;;;14.07;65.33
60832;BME280;46665;51.558;-0.448;2023-05-03T11:24:07;102122.28;;;14.05;64.18
60832;BME280;46665;51.558;-0.448;2023-05-03T11:26:38;102108.84;;;13.99;63.36
60832;BME280;46665;51.558;-0.448;2023-05-03T11:29:04;102106.91;;;13.94;64.04
60832;BME280;46665;51.558;-0.448;2023-05-03T11:31:30;102110.69;;;13.83;64.72
60832;BME280;46665;51.558;-0.448;2023-05-03T11:33:56;102109.06;;;13.87;63.94
60832;BME280;46665;51.558;-0.448;2023-05-03T11:36:21;102100.84;;;13.92;63.81
60832;BME280;46665;51.558;-0.448;2023-05-03T11:38:46;102088.81;;;13.88;63.71
60832;BME280;46665;51.558;-0.448;2023-05-03T11:41:14;102085.59;;;14.01;65.36
60832;BME280;46665;51.558;-0.448;2023-05-03T11:43:46;102086.72;;;14.11;64.76
60832;BME280;46665;51.558;-0.448;2023-05-03T11:46:14;102084.50;;;14.18;62.88
60832;BME280;46665;51.558;-0.448;2023-05-03T11:48:43;102069.47;;;14.20;61.98
60832;BME280;46665;51.558;-0.448;2023-05-03T11:51:08;102067.03;;;14.24;62.64
60832;BME280;46665;51.558;-0.448;2023-05-03T11:53:39;102067.28;;;14.27;61.54
60832;BME280;46665;51.558;-0.448;2023-05-03T11:56:10;102060.19;;;14.31;60.87
60832;BME280;46665;51.558;-0.448;2023-05-03T11:58:54;102058.81;;;14.39;62.26
60832;BME280;46665;51.558;-0.448;2023-05-03T12:01:23;102050.88;;;14.43;61.42
60832;BME280;46665;51.558;-0.448;2023-05-03T12:04:07;102047.63;;;14.41;61.42
60832;BME280;46665;51.558;-0.448;2023-05-03T12:06:33;102043.50;;;14.43;60.75
60832;BME280;46665;51.558;-0.448;2023-05-03T12:09:00;102042.41;;;14.49;61.68
60832;BME280;46665;51.558;-0.448;2023-05-03T12:11:25;102045.44;;;14.58;60.75
60832;BME280;46665;51.558;-0.448;2023-05-03T12:14:01;102043.81;;;14.62;59.42
60832;BME280;46665;51.558;-0.448;2023-05-03T12:16:27;102042.69;;;14.58;60.61
60832;BME280;46665;51.558;-0.448;2023-05-03T12:18:57;102039.69;;;14.65;59.06
60832;BME280;46665;51.558;-0.448;2023-05-03T12:21:42;102041.63;;;14.69;58.93
60832;BME280;46665;51.558;-0.448;2023-05-03T12:24:08;102040.78;;;14.74;59.23
60832;BME280;46665;51.558;-0.448;2023-05-03T12:26:33;102026.00;;;14.75;59.00
60832;BME280;46665;51.558;-0.448;2023-05-03T12:28:59;102030.06;;;14.88;59.69
60832;BME280;46665;51.558;-0.448;2023-05-03T12:31:25;102019.13;;;14.88;57.49
60832;BME280;46665;51.558;-0.448;2023-05-03T12:33:51;102034.16;;;15.06;59.89
60832;BME280;46665;51.558;-0.448;2023-05-03T12:36:17;102017.97;;;15.20;58.46
60832;BME280;46665;51.558;-0.448;2023-05-03T12:38:43;102017.94;;;15.30;58.43
60832;BME280;46665;51.558;-0.448;2023-05-03T12:41:09;102014.88;;;15.31;57.70
60832;BME280;46665;51.558;-0.448;2023-05-03T12:43:35;102009.97;;;15.28;56.75